Time;durP1;ratioP1;P1;durP2;ratioP2;P2;SDS_P1;SDS_P2;PMS_P1;PMS_P2;Temp;Humidity;BMP_temperature;BMP_pressure;BME280_temperature;BME280_humidity;BME280_pressure;Samples;Min_cycle;Max_cycle;Signal;HPM_P1;HPM_P2
2021/04/03 00:02:16;;;;;;;6.95;2.22;;;;;;;;;;6090560;29;20486;-78
2021/04/03 00:05:17;;;;;;;5.43;1.80;;;;;;;;;;6091267;29;20080;-78
2021/04/03 00:08:20;;;;;;;4.43;2.30;;;;;;;;;;6091142;29;20132;-77
2021/04/03 00:11:21;;;;;;;6.80;2.20;;;;;;;;;;6090513;29;20059;-78
2021/04/03 00:14:23;;;;;;;6.90;2.00;;;;;;;;;;6093369;29;20143;-77
2021/04/03 00:17:24;;;;;;;4.90;2.17;;;;;;;;;;6086353;29;20180;-77
2021/04/03 00:20:27;;;;;;;3.42;1.98;;;;;;;;;;6093683;29;20148;-78
2021/04/03 00:23:28;;;;;;;3.20;1.80;;;;;;;;;;6093557;29;20528;-80
2021/04/03 00:26:29;;;;;;;5.05;2.22;;;;;;;;;;6089917;29;20044;-79
2021/04/03 00:29:31;;;;;;;5.00;2.08;;;;;;;;;;6103685;29;20139;-77
2021/04/03 00:32:33;;;;;;;3.38;2.20;;;;;;;;;;6111137;29;20068;-78
2021/04/03 00:35:36;;;;;;;8.18;2.83;;;;;;;;;;6115791;29;20054;-78
2021/04/03 00:38:37;;;;;;;4.70;2.90;;;;;;;;;;6118507;29;20641;-78
2021/04/03 00:41:38;;;;;;;3.60;2.38;;;;;;;;;;6112604;29;20553;-79
2021/04/03 00:44:43;;;;;;;3.50;2.40;;;;;;;;;;6116938;29;20079;-79
2021/04/03 00:47:45;;;;;;;4.43;2.10;;;;;;;;;;6107464;29;20511;-77
2021/04/03 00:50:47;;;;;;;5.18;2.38;;;;;;;;;;6086110;29;20422;-78
2021/04/03 00:53:49;;;;;;;3.03;2.00;;;;;;;;;;6089680;29;20519;-79
2021/04/03 00:56:50;;;;;;;4.63;2.30;;;;;;;;;;6092572;29;20051;-77
2021/04/03 00:59:52;;;;;;;6.78;2.63;;;;;;;;;;6098301;29;20056;-77
2021/04/03 01:02:53;;;;;;;4.28;2.08;;;;;;;;;;6120619;24;20059;-69
2021/04/03 01:05:54;;;;;;;4.35;2.55;;;;;;;;;;6114484;29;20476;-69
2021/04/03 01:08:55;;;;;;;5.65;2.45;;;;;;;;;;6121403;29;20135;-71
2021/04/03 01:12:01;;;;;;;4.35;2.20;;;;;;;;;;6105719;29;20086;-71
2021/04/03 01:15:08;;;;;;;4.28;2.55;;;;;;;;;;6105036;29;20147;-71
2021/04/03 01:18:14;;;;;;;5.07;2.35;;;;;;;;;;6099242;29;20136;-69
2021/04/03 01:21:18;;;;;;;6.40;2.55;;;;;;;;;;6095046;29;20058;-70
2021/04/03 01:24:29;;;;;;;4.53;2.50;;;;;;;;;;6094937;29;20070;-70
2021/04/03 01:27:31;;;;;;;3.45;2.00;;;;;;;;;;6087662;29;20131;-70
2021/04/03 01:30:33;;;;;;;4.97;2.80;;;;;;;;;;6083181;29;20161;-70
2021/04/03 01:33:35;;;;;;;6.60;2.63;;;;;;;;;;6105685;29;20120;-70
2021/04/03 01:36:37;;;;;;;5.72;2.38;;;;;;;;;;6092775;29;20076;-70
2021/04/03 01:39:39;;;;;;;5.07;2.70;;;;;;;;;;6088239;29;20121;-70
2021/04/03 01:42:43;;;;;;;6.35;2.55;;;;;;;;;;6104216;29;20067;-72
2021/04/03 01:45:45;;;;;;;3.75;2.50;;;;;;;;;;6112555;29;20098;-69
2021/04/03 01:48:47;;;;;;;4.35;2.78;;;;;;;;;;6111072;29;20147;-70
2021/04/03 01:51:49;;;;;;;5.35;2.90;;;;;;;;;;6106681;29;20040;-71
2021/04/03 01:54:51;;;;;;;4.80;2.53;;;;;;;;;;6107610;29;20168;-71
2021/04/03 01:57:53;;;;;;;7.72;2.80;;;;;;;;;;6109719;29;20139;-71
2021/04/03 02:00:55;;;;;;;9.15;2.78;;;;;;;;;;6111974;29;20052;-71
2021/04/03 02:03:58;;;;;;;6.85;2.30;;;;;;;;;;6099258;29;20449;-71
2021/04/03 02:06:59;;;;;;;8.48;2.53;;;;;;;;;;6086448;29;20135;-71
2021/04/03 02:10:00;;;;;;;6.38;2.42;;;;;;;;;;6088269;29;20144;-71
2021/04/03 02:13:03;;;;;;;6.70;2.55;;;;;;;;;;6105525;29;20044;-69
2021/04/03 02:16:06;;;;;;;5.20;2.30;;;;;;;;;;6101624;29;20102;-69
2021/04/03 02:19:08;;;;;;;6.55;2.50;;;;;;;;;;6085098;29;20104;-69
2021/04/03 02:22:10;;;;;;;5.47;2.30;;;;;;;;;;6089980;29;20132;-70
2021/04/03 02:25:12;;;;;;;6.30;2.70;;;;;;;;;;6092919;29;20571;-71
2021/04/03 02:28:13;;;;;;;3.88;2.30;;;;;;;;;;6117117;29;20507;-71
2021/04/03 02:31:15;;;;;;;4.18;2.20;;;;;;;;;;6115164;29;20134;-69
2021/04/03 02:34:16;;;;;;;6.43;2.60;;;;;;;;;;6115205;29;20175;-70
2021/04/03 02:37:17;;;;;;;5.53;2.78;;;;;;;;;;6113573;29;20155;-71
2021/04/03 02:40:21;;;;;;;5.72;2.42;;;;;;;;;;6098729;29;20056;-71
2021/04/03 02:43:27;;;;;;;5.53;2.25;;;;;;;;;;6088096;29;20148;-71
2021/04/03 02:46:33;;;;;;;3.90;2.50;;;;;;;;;;6095501;29;20163;-71
2021/04/03 02:49:38;;;;;;;5.63;2.58;;;;;;;;;;6103637;29;20090;-71
2021/04/03 02:52:40;;;;;;;5.45;2.75;;;;;;;;;;6112350;29;20059;-71
2021/04/03 02:55:46;;;;;;;5.80;2.80;;;;;;;;;;6116931;28;20146;-71
2021/04/03 02:58:48;;;;;;;4.95;2.60;;;;;;;;;;6144814;28;20067;-71
2021/04/03 03:01:53;;;;;;;6.18;2.70;;;;;;;;;;6147035;28;20058;-70
2021/04/03 03:04:55;;;;;;;4.35;2.60;;;;;;;;;;6135963;28;20134;-71
2021/04/03 03:07:56;;;;;;;3.50;2.47;;;;;;;;;;6139580;28;20134;-70
2021/04/03 03:10:57;;;;;;;6.63;2.92;;;;;;;;;;6135690;28;20135;-70
2021/04/03 03:14:01;;;;;;;6.80;2.70;;;;;;;;;;6140411;28;20067;-69
2021/04/03 03:17:04;;;;;;;4.25;2.80;;;;;;;;;;6145582;28;20505;-69
2021/04/03 03:20:07;;;;;;;6.60;3.07;;;;;;;;;;6147978;28;20071;-70
2021/04/03 03:23:08;;;;;;;7.47;3.03;;;;;;;;;;6139636;28;20075;-69
2021/04/03 03:26:09;;;;;;;6.03;2.53;;;;;;;;;;6132921;28;20609;-71
2021/04/03 03:29:12;;;;;;;4.05;2.50;;;;;;;;;;6144739;28;20163;-71
2021/04/03 03:32:14;;;;;;;3.90;2.53;;;;;;;;;;6135661;28;20091;-71
2021/04/03 03:35:18;;;;;;;5.97;2.75;;;;;;;;;;6137873;28;20122;-71
2021/04/03 03:38:20;;;;;;;6.93;2.90;;;;;;;;;;6137506;28;20196;-71
2021/04/03 03:41:21;;;;;;;4.65;3.10;;;;;;;;;;6139781;28;20150;-70
2021/04/03 03:44:22;;;;;;;7.35;3.00;;;;;;;;;;6137632;28;20170;-71
2021/04/03 03:47:24;;;;;;;5.63;2.80;;;;;;;;;;6140638;28;20135;-71
2021/04/03 03:50:25;;;;;;;7.28;2.63;;;;;;;;;;6144045;28;20055;-71
2021/04/03 03:53:27;;;;;;;5.43;2.88;;;;;;;;;;6143720;28;20155;-71
2021/04/03 03:56:28;;;;;;;5.22;2.75;;;;;;;;;;6144659;28;20146;-71
2021/04/03 03:59:29;;;;;;;11.43;3.22;;;;;;;;;;6145196;28;20111;-70
2021/04/03 04:02:31;;;;;;;6.50;2.80;;;;;;;;;;6147915;28;20079;-70
2021/04/03 04:05:32;;;;;;;6.03;2.88;;;;;;;;;;6141860;28;20448;-71
2021/04/03 04:08:33;;;;;;;4.68;3.03;;;;;;;;;;6139682;28;20044;-70
2021/04/03 04:11:34;;;;;;;5.93;2.95;;;;;;;;;;6144331;28;20138;-70
2021/04/03 04:14:36;;;;;;;4.35;2.70;;;;;;;;;;6136657;28;20496;-70
2021/04/03 04:17:38;;;;;;;5.13;3.03;;;;;;;;;;6136571;28;20549;-71
2021/04/03 04:20:39;;;;;;;5.15;2.50;;;;;;;;;;6138839;28;20090;-71
2021/04/03 04:23:40;;;;;;;6.53;3.15;;;;;;;;;;6139535;28;20067;-71
2021/04/03 04:26:41;;;;;;;6.10;3.10;;;;;;;;;;6151767;28;20134;-71
2021/04/03 04:29:42;;;;;;;7.00;3.55;;;;;;;;;;6140602;28;20139;-69
2021/04/03 04:32:44;;;;;;;5.10;3.05;;;;;;;;;;6146301;28;20801;-69
2021/04/03 04:35:45;;;;;;;4.95;3.05;;;;;;;;;;6152325;28;20063;-70
2021/04/03 04:38:46;;;;;;;4.95;3.20;;;;;;;;;;6139946;28;20134;-70
2021/04/03 04:41:47;;;;;;;5.63;2.97;;;;;;;;;;6142727;28;20138;-71
2021/04/03 04:44:48;;;;;;;9.82;2.92;;;;;;;;;;6145772;28;20130;-71
2021/04/03 04:47:50;;;;;;;12.30;3.35;;;;;;;;;;6143642;28;20078;-72
2021/04/03 04:50:51;;;;;;;9.52;3.10;;;;;;;;;;6145871;28;20207;-69
2021/04/03 04:53:53;;;;;;;10.40;3.63;;;;;;;;;;6147381;28;20071;-71
2021/04/03 04:56:54;;;;;;;8.23;3.42;;;;;;;;;;6146458;28;20256;-71
2021/04/03 04:59:55;;;;;;;4.90;3.38;;;;;;;;;;6150483;28;20133;-71
2021/04/03 05:02:57;;;;;;;7.88;3.38;;;;;;;;;;6142090;28;20050;-71
2021/04/03 05:05:58;;;;;;;7.20;3.55;;;;;;;;;;6139835;28;20063;-71
2021/04/03 05:08:59;;;;;;;5.68;3.95;;;;;;;;;;6143734;28;20062;-71
2021/04/03 05:12:01;;;;;;;6.40;3.22;;;;;;;;;;6147440;28;20101;-70
2021/04/03 05:15:03;;;;;;;7.78;3.80;;;;;;;;;;6148495;28;20095;-70
2021/04/03 05:18:05;;;;;;;7.60;3.35;;;;;;;;;;6142577;28;20593;-71
2021/04/03 05:21:06;;;;;;;6.10;3.40;;;;;;;;;;6143297;28;20517;-71
2021/04/03 05:24:08;;;;;;;8.02;3.55;;;;;;;;;;6147342;28;20157;-71
2021/04/03 05:27:09;;;;;;;10.23;3.97;;;;;;;;;;6148921;28;20232;-71
2021/04/03 05:30:11;;;;;;;7.20;3.65;;;;;;;;;;6138742;28;20140;-70
2021/04/03 05:33:13;;;;;;;6.78;4.07;;;;;;;;;;6140061;28;20094;-70
2021/04/03 05:36:14;;;;;;;7.70;3.35;;;;;;;;;;6147579;28;20150;-71
2021/04/03 05:39:15;;;;;;;8.18;3.45;;;;;;;;;;6143000;28;20070;-70
2021/04/03 05:42:18;;;;;;;12.10;3.90;;;;;;;;;;6139797;28;20058;-71
2021/04/03 05:45:20;;;;;;;5.22;3.38;;;;;;;;;;6149983;28;20070;-71
2021/04/03 05:48:23;;;;;;;7.28;3.65;;;;;;;;;;6152209;28;20090;-71
2021/04/03 05:51:24;;;;;;;8.77;3.42;;;;;;;;;;6150819;28;20142;-71
2021/04/03 05:54:25;;;;;;;6.78;3.55;;;;;;;;;;6146686;28;20074;-71
2021/04/03 05:57:26;;;;;;;10.10;3.50;;;;;;;;;;6156611;28;20117;-71
2021/04/03 06:00:27;;;;;;;5.85;3.60;;;;;;;;;;6143334;28;20502;-71
2021/04/03 06:03:29;;;;;;;9.18;3.75;;;;;;;;;;6145967;28;20087;-70
2021/04/03 06:06:31;;;;;;;6.55;3.90;;;;;;;;;;6149278;28;20055;-71
2021/04/03 06:09:32;;;;;;;5.03;3.38;;;;;;;;;;6139989;28;20051;-71
2021/04/03 06:12:43;;;;;;;7.55;3.70;;;;;;;;;;6141473;28;20098;-71
2021/04/03 06:15:44;;;;;;;9.35;3.90;;;;;;;;;;6157989;28;20090;-71
2021/04/03 06:18:46;;;;;;;8.35;4.15;;;;;;;;;;6151861;28;20051;-70
2021/04/03 06:21:48;;;;;;;8.55;4.25;;;;;;;;;;6154327;28;20059;-71
2021/04/03 06:25:03;;;;;;;5.00;3.53;;;;;;;;;;6146312;28;20047;-71
2021/04/03 06:28:08;;;;;;;5.32;4.30;;;;;;;;;;6154011;28;20051;-71
2021/04/03 06:31:13;;;;;;;11.57;4.43;;;;;;;;;;6168112;28;20067;-71
2021/04/03 06:34:25;;;;;;;7.93;4.07;;;;;;;;;;6155368;28;20406;-71
2021/04/03 06:37:27;;;;;;;12.85;4.80;;;;;;;;;;6152954;28;20537;-70
2021/04/03 06:40:29;;;;;;;6.45;3.88;;;;;;;;;;6150128;28;20047;-75
2021/04/03 06:43:30;;;;;;;7.63;4.45;;;;;;;;;;6149121;28;20093;-71
2021/04/03 06:46:32;;;;;;;7.45;4.30;;;;;;;;;;6150513;28;20051;-71
2021/04/03 06:49:34;;;;;;;10.32;4.53;;;;;;;;;;6145607;28;20102;-71
2021/04/03 06:52:37;;;;;;;10.90;4.90;;;;;;;;;;6153003;28;20517;-70
2021/04/03 06:55:40;;;;;;;11.27;4.63;;;;;;;;;;6150681;28;20418;-71
2021/04/03 06:58:44;;;;;;;9.40;4.43;;;;;;;;;;6158663;28;20102;-71
2021/04/03 07:01:52;;;;;;;;;;;;;;;;;;6144044;28;20059;-71
2021/04/03 07:04:54;;;;;;;8.23;4.35;;;;;;;;;;6132736;28;19930;-71
2021/04/03 07:07:56;;;;;;;9.60;4.40;;;;;;;;;;6135794;28;20043;-70
2021/04/03 07:10:57;;;;;;;6.80;4.10;;;;;;;;;;6129973;28;20134;-71
2021/04/03 07:13:59;;;;;;;6.07;4.00;;;;;;;;;;6137207;28;20137;-71
2021/04/03 07:17:02;;;;;;;6.40;4.25;;;;;;;;;;6132682;28;20410;-71
2021/04/03 07:20:08;;;;;;;7.37;3.87;;;;;;;;;;6133786;28;20126;-72
2021/04/03 07:23:11;;;;;;;9.63;3.92;;;;;;;;;;6137402;28;20539;-71
2021/04/03 07:26:12;;;;;;;10.75;4.47;;;;;;;;;;6140692;28;20561;-72
2021/04/03 07:29:43;;;;;;;7.63;4.28;;;;;;;;;;6137742;28;20724;-71
2021/04/03 07:32:45;;;;;;;9.65;4.63;;;;;;;;;;6130155;28;20047;-71
2021/04/03 07:35:48;;;;;;;10.60;4.75;;;;;;;;;;6130275;28;20090;-70
2021/04/03 07:38:49;;;;;;;5.57;3.72;;;;;;;;;;6141741;28;20094;-71
2021/04/03 07:41:50;;;;;;;10.73;4.03;;;;;;;;;;6134906;28;20232;-71
2021/04/03 07:44:51;;;;;;;7.50;3.38;;;;;;;;;;6133556;28;20138;-71
2021/04/03 07:47:52;;;;;;;7.63;3.65;;;;;;;;;;6137848;28;20101;-71
2021/04/03 07:50:54;;;;;;;8.82;3.58;;;;;;;;;;6134736;28;20669;-71
2021/04/03 07:53:57;;;;;;;9.73;5.18;;;;;;;;;;6110786;28;20134;-71
2021/04/03 07:57:06;;;;;;;7.63;5.32;;;;;;;;;;6137732;28;20047;-71
2021/04/03 08:00:09;;;;;;;11.10;5.05;;;;;;;;;;6136008;28;20062;-71
2021/04/03 08:03:10;;;;;;;10.38;4.88;;;;;;;;;;6135071;28;20131;-69
2021/04/03 08:06:12;;;;;;;11.40;5.28;;;;;;;;;;6137324;28;20158;-71
2021/04/03 08:09:15;;;;;;;11.55;5.80;;;;;;;;;;6143647;28;20126;-71
2021/04/03 08:12:18;;;;;;;11.90;5.88;;;;;;;;;;6136864;28;20093;-71
2021/04/03 08:15:20;;;;;;;11.82;5.60;;;;;;;;;;6133176;28;20537;-71
2021/04/03 08:18:21;;;;;;;9.45;4.78;;;;;;;;;;6134616;28;20075;-71
2021/04/03 08:21:25;;;;;;;13.93;5.53;;;;;;;;;;6150191;28;20498;-70
2021/04/03 08:24:26;;;;;;;10.10;5.53;;;;;;;;;;6132319;28;20098;-71
2021/04/03 08:27:32;;;;;;;9.70;5.93;;;;;;;;;;6136542;28;20727;-71
2021/04/03 08:30:33;;;;;;;13.27;6.20;;;;;;;;;;6146385;28;20070;-72
2021/04/03 08:33:34;;;;;;;15.45;6.03;;;;;;;;;;6143552;28;20122;-70
2021/04/03 08:36:37;;;;;;;12.57;5.55;;;;;;;;;;6141846;28;20082;-69
2021/04/03 08:39:38;;;;;;;13.07;6.57;;;;;;;;;;6139648;28;20120;-69
2021/04/03 08:42:39;;;;;;;9.00;5.88;;;;;;;;;;6136126;28;20053;-72
2021/04/03 08:45:42;;;;;;;9.85;5.60;;;;;;;;;;6138881;28;20079;-71
2021/04/03 08:48:44;;;;;;;10.55;5.57;;;;;;;;;;6139075;28;20066;-72
2021/04/03 08:51:46;;;;;;;11.57;5.63;;;;;;;;;;6138688;28;20074;-70
2021/04/03 08:54:47;;;;;;;11.18;5.90;;;;;;;;;;6146976;28;20097;-70
2021/04/03 08:57:51;;;;;;;9.60;5.68;;;;;;;;;;6133599;28;21013;-70
2021/04/03 09:00:52;;;;;;;;;;;;;;;;;;6137773;28;20142;-70
2021/04/03 09:03:56;;;;;;;11.93;6.20;;;;;;;;;;6135223;28;19982;-71
2021/04/03 09:06:58;;;;;;;8.48;6.18;;;;;;;;;;6136051;28;20051;-71
2021/04/03 09:10:04;;;;;;;9.75;6.78;;;;;;;;;;6137662;28;20518;-71
2021/04/03 09:13:12;;;;;;;11.18;6.38;;;;;;;;;;6126938;28;20138;-71
2021/04/03 09:16:15;;;;;;;8.65;6.28;;;;;;;;;;6137477;28;20138;-70
2021/04/03 09:19:23;;;;;;;11.60;6.38;;;;;;;;;;6149423;28;20117;-70
2021/04/03 09:22:25;;;;;;;11.18;6.30;;;;;;;;;;6144009;28;20082;-70
2021/04/03 09:25:30;;;;;;;13.30;6.45;;;;;;;;;;6140805;28;20094;-68
2021/04/03 09:28:39;;;;;;;8.38;6.55;;;;;;;;;;6135063;28;20137;-71
2021/04/03 09:31:41;;;;;;;10.73;6.55;;;;;;;;;;6135895;28;20156;-71
2021/04/03 09:34:42;;;;;;;14.27;7.13;;;;;;;;;;6140338;28;20089;-71
2021/04/03 09:37:44;;;;;;;10.93;7.07;;;;;;;;;;6141350;28;20167;-71
2021/04/03 09:40:46;;;;;;;13.45;6.60;;;;;;;;;;6140985;28;20478;-71
2021/04/03 09:43:47;;;;;;;11.65;7.00;;;;;;;;;;6137798;28;20503;-70
2021/04/03 09:46:49;;;;;;;13.95;7.45;;;;;;;;;;6139683;28;20150;-70
2021/04/03 09:49:50;;;;;;;12.45;7.05;;;;;;;;;;6140761;28;20133;-72
2021/04/03 09:52:52;;;;;;;10.43;7.35;;;;;;;;;;6131178;28;20182;-71
2021/04/03 09:55:53;;;;;;;16.20;7.63;;;;;;;;;;6137691;28;20051;-71
2021/04/03 09:58:56;;;;;;;15.20;8.35;;;;;;;;;;6136187;28;20067;-71
2021/04/03 10:01:59;;;;;;;20.73;9.75;;;;;;;;;;6133864;28;20051;-72
2021/04/03 10:05:00;;;;;;;14.20;9.50;;;;;;;;;;6135126;28;20079;-69
2021/04/03 10:08:02;;;;;;;15.30;9.32;;;;;;;;;;6138282;28;20051;-72
2021/04/03 10:11:03;;;;;;;28.75;11.25;;;;;;;;;;6133230;28;20135;-70
2021/04/03 10:14:05;;;;;;;16.23;9.55;;;;;;;;;;6139997;28;20051;-71
2021/04/03 10:17:06;;;;;;;20.27;10.45;;;;;;;;;;6130997;28;20093;-72
2021/04/03 10:20:08;;;;;;;14.25;9.70;;;;;;;;;;6128859;28;20073;-73
2021/04/03 10:23:10;;;;;;;15.73;9.35;;;;;;;;;;6134836;28;20158;-70
2021/04/03 10:26:11;;;;;;;15.80;9.52;;;;;;;;;;6136991;28;20562;-72
2021/04/03 10:29:12;;;;;;;18.65;10.63;;;;;;;;;;6139806;28;20130;-71
2021/04/03 10:32:13;;;;;;;23.52;10.27;;;;;;;;;;6130470;28;20118;-69
2021/04/03 10:35:15;;;;;;;17.45;10.05;;;;;;;;;;6137328;28;20146;-71
2021/04/03 10:38:17;;;;;;;14.68;9.60;;;;;;;;;;6134021;28;20170;-70
2021/04/03 10:41:18;;;;;;;20.10;10.35;;;;;;;;;;6137542;28;20059;-70
2021/04/03 10:44:19;;;;;;;15.57;9.48;;;;;;;;;;6139332;28;20494;-70
2021/04/03 10:47:20;;;;;;;13.63;9.88;;;;;;;;;;6140164;28;20074;-71
2021/04/03 10:50:21;;;;;;;13.70;9.52;;;;;;;;;;6141499;28;20046;-71
2021/04/03 10:53:23;;;;;;;18.33;10.27;;;;;;;;;;6139238;28;20087;-71
2021/04/03 10:56:25;;;;;;;18.53;10.17;;;;;;;;;;6143468;28;20680;-71
2021/04/03 10:59:26;;;;;;;15.85;10.20;;;;;;;;;;6138022;28;20668;-71
2021/04/03 11:02:27;;;;;;;29.90;11.35;;;;;;;;;;6137231;28;20136;-71
2021/04/03 11:05:28;;;;;;;14.18;11.30;;;;;;;;;;6144446;28;20074;-71
2021/04/03 11:08:30;;;;;;;17.42;11.07;;;;;;;;;;6134996;28;20138;-71
2021/04/03 11:11:32;;;;;;;17.77;11.05;;;;;;;;;;6140666;28;20049;-69
2021/04/03 11:14:33;;;;;;;19.05;11.48;;;;;;;;;;6139833;28;20567;-70
2021/04/03 11:17:34;;;;;;;16.38;12.38;;;;;;;;;;6137783;28;20050;-71
2021/04/03 11:20:35;;;;;;;20.98;13.10;;;;;;;;;;6139217;28;20465;-71
2021/04/03 11:23:37;;;;;;;17.52;11.60;;;;;;;;;;6140748;28;20697;-71
2021/04/03 11:26:38;;;;;;;15.90;12.05;;;;;;;;;;6138927;28;20186;-70
2021/04/03 11:29:39;;;;;;;15.57;11.75;;;;;;;;;;6135966;28;20134;-70
2021/04/03 11:32:42;;;;;;;19.13;12.35;;;;;;;;;;6141059;28;20150;-70
2021/04/03 11:35:43;;;;;;;17.73;12.07;;;;;;;;;;6137445;28;20075;-69
2021/04/03 11:38:45;;;;;;;13.75;11.13;;;;;;;;;;6136626;28;20471;-72
2021/04/03 11:41:46;;;;;;;16.40;11.30;;;;;;;;;;6142298;28;20222;-70
2021/04/03 11:44:47;;;;;;;14.88;11.20;;;;;;;;;;6141833;28;20190;-71
2021/04/03 11:47:48;;;;;;;17.30;11.00;;;;;;;;;;6139325;28;20098;-73
2021/04/03 11:50:49;;;;;;;14.07;11.55;;;;;;;;;;6140932;28;22013;-71
2021/04/03 11:53:51;;;;;;;16.90;12.02;;;;;;;;;;6139636;28;20044;-71
2021/04/03 11:56:52;;;;;;;17.33;10.93;;;;;;;;;;6143779;28;20509;-69
2021/04/03 11:59:53;;;;;;;17.83;12.05;;;;;;;;;;6149378;28;20555;-70
2021/04/03 12:02:54;;;;;;;17.58;12.23;;;;;;;;;;6145430;28;20491;-72
2021/04/03 12:05:55;;;;;;;15.13;9.77;;;;;;;;;;6146668;28;20082;-71
2021/04/03 12:08:57;;;;;;;16.00;8.73;;;;;;;;;;6142182;28;20139;-69
2021/04/03 12:11:58;;;;;;;12.52;8.50;;;;;;;;;;6145059;28;20127;-71
2021/04/03 12:14:59;;;;;;;15.75;8.23;;;;;;;;;;6143930;28;20058;-69
2021/04/03 12:18:00;;;;;;;11.55;7.95;;;;;;;;;;6136271;28;20143;-70
2021/04/03 12:21:01;;;;;;;12.23;7.90;;;;;;;;;;6139504;28;20463;-71
2021/04/03 12:24:05;;;;;;;15.50;7.72;;;;;;;;;;6136322;28;20070;-73
2021/04/03 12:27:07;;;;;;;15.48;7.78;;;;;;;;;;6139585;28;20058;-70
2021/04/03 12:30:09;;;;;;;12.73;8.55;;;;;;;;;;6143283;28;20051;-71
2021/04/03 12:33:10;;;;;;;13.57;8.35;;;;;;;;;;6133330;28;20482;-71
2021/04/03 12:36:11;;;;;;;11.27;7.97;;;;;;;;;;6139547;28;20483;-72
2021/04/03 12:39:13;;;;;;;11.48;8.07;;;;;;;;;;6145196;28;20134;-72
2021/04/03 12:42:15;;;;;;;14.63;8.13;;;;;;;;;;6130764;28;20039;-70
2021/04/03 12:45:17;;;;;;;15.80;8.90;;;;;;;;;;6134778;28;20048;-72
2021/04/03 12:48:18;;;;;;;12.68;8.15;;;;;;;;;;6144955;28;20045;-71
2021/04/03 12:51:19;;;;;;;18.25;9.32;;;;;;;;;;6133548;28;20107;-71
2021/04/03 12:54:21;;;;;;;16.15;9.48;;;;;;;;;;6141127;28;20186;-69
2021/04/03 12:57:22;;;;;;;16.07;8.67;;;;;;;;;;6141680;28;20043;-71
2021/04/03 13:00:24;;;;;;;16.63;9.15;;;;;;;;;;6141848;28;20126;-70
2021/04/03 13:03:25;;;;;;;19.15;8.93;;;;;;;;;;6136889;28;20122;-70
2021/04/03 13:06:26;;;;;;;10.98;8.57;;;;;;;;;;6143311;28;20065;-69
2021/04/03 13:09:28;;;;;;;16.23;9.40;;;;;;;;;;6136380;28;20146;-70
2021/04/03 13:12:29;;;;;;;19.27;8.95;;;;;;;;;;6137455;28;20130;-68
2021/04/03 13:15:30;;;;;;;14.93;9.32;;;;;;;;;;6132795;28;20047;-71
2021/04/03 13:18:31;;;;;;;14.57;9.32;;;;;;;;;;6136530;28;20130;-69
2021/04/03 13:21:33;;;;;;;16.08;9.13;;;;;;;;;;6134302;28;20082;-70
2021/04/03 13:24:34;;;;;;;18.42;9.32;;;;;;;;;;6139057;28;20134;-70
2021/04/03 13:27:36;;;;;;;16.98;8.82;;;;;;;;;;6140694;28;20055;-70
2021/04/03 13:30:37;;;;;;;14.15;8.65;;;;;;;;;;6138391;28;20047;-71
2021/04/03 13:33:38;;;;;;;16.80;7.68;;;;;;;;;;6132714;28;20047;-70
2021/04/03 13:36:39;;;;;;;14.57;7.80;;;;;;;;;;6133350;28;20139;-71
2021/04/03 13:39:41;;;;;;;13.40;7.13;;;;;;;;;;6126304;28;20078;-70
2021/04/03 13:42:42;;;;;;;20.42;7.65;;;;;;;;;;6133113;28;20138;-69
2021/04/03 13:45:43;;;;;;;10.32;6.95;;;;;;;;;;6124854;28;20086;-70
2021/04/03 13:48:44;;;;;;;10.50;6.80;;;;;;;;;;6140127;28;20146;-69
2021/04/03 13:51:45;;;;;;;11.68;6.70;;;;;;;;;;6135948;28;20137;-68
2021/04/03 13:54:47;;;;;;;13.65;7.13;;;;;;;;;;6134424;28;20183;-71
2021/04/03 13:57:48;;;;;;;14.60;7.35;;;;;;;;;;6127580;28;20510;-69
2021/04/03 14:00:50;;;;;;;17.33;6.43;;;;;;;;;;6137084;28;20115;-70
2021/04/03 14:03:51;;;;;;;18.95;6.90;;;;;;;;;;6138904;28;20057;-71
2021/04/03 14:06:53;;;;;;;18.08;6.50;;;;;;;;;;6141081;28;20046;-70
2021/04/03 14:09:55;;;;;;;12.93;6.53;;;;;;;;;;6136412;28;20053;-70
2021/04/03 14:12:56;;;;;;;10.30;7.22;;;;;;;;;;6124686;28;20630;-70
2021/04/03 14:15:59;;;;;;;14.30;6.25;;;;;;;;;;6136271;28;20139;-71
2021/04/03 14:19:00;;;;;;;10.65;5.65;;;;;;;;;;6141638;28;20102;-71
2021/04/03 14:22:01;;;;;;;12.32;5.25;;;;;;;;;;6140303;28;20055;-72
2021/04/03 14:25:04;;;;;;;13.40;6.35;;;;;;;;;;6129883;28;20151;-72
2021/04/03 14:28:06;;;;;;;11.80;5.07;;;;;;;;;;6137313;28;20391;-70
2021/04/03 14:31:07;;;;;;;8.45;4.75;;;;;;;;;;6125143;28;20082;-71
2021/04/03 14:34:08;;;;;;;15.27;5.15;;;;;;;;;;6131397;28;20047;-71
2021/04/03 14:37:09;;;;;;;12.98;5.15;;;;;;;;;;6132560;28;20479;-70
2021/04/03 14:40:11;;;;;;;8.82;4.78;;;;;;;;;;6138638;28;20138;-71
2021/04/03 14:43:13;;;;;;;14.77;4.60;;;;;;;;;;6130257;28;20051;-71
2021/04/03 14:46:14;;;;;;;14.98;5.28;;;;;;;;;;6130321;28;20043;-71
2021/04/03 14:49:15;;;;;;;11.35;4.97;;;;;;;;;;6135663;28;20323;-70
2021/04/03 14:52:16;;;;;;;10.23;5.15;;;;;;;;;;6136428;28;20137;-70
2021/04/03 14:55:18;;;;;;;12.05;4.45;;;;;;;;;;6129659;28;20095;-70
2021/04/03 14:58:19;;;;;;;7.13;4.10;;;;;;;;;;6137600;28;20089;-71
2021/04/03 15:01:20;;;;;;;11.43;4.18;;;;;;;;;;6138801;28;20458;-71
2021/04/03 15:04:22;;;;;;;13.18;5.00;;;;;;;;;;6128298;28;20043;-70
2021/04/03 15:07:23;;;;;;;9.10;4.00;;;;;;;;;;6130749;28;20046;-71
2021/04/03 15:10:25;;;;;;;12.13;5.57;;;;;;;;;;6129094;28;20121;-74
2021/04/03 15:13:26;;;;;;;8.95;3.83;;;;;;;;;;6132069;28;20483;-71
2021/04/03 15:16:27;;;;;;;10.07;4.25;;;;;;;;;;6129213;28;20225;-69
2021/04/03 15:19:28;;;;;;;9.75;5.03;;;;;;;;;;6133761;28;20475;-71
2021/04/03 15:22:29;;;;;;;7.60;3.30;;;;;;;;;;6139535;28;20681;-71
2021/04/03 15:25:31;;;;;;;8.18;3.50;;;;;;;;;;6130245;28;20055;-70
2021/04/03 15:28:32;;;;;;;9.55;3.80;;;;;;;;;;6136322;28;20101;-72
2021/04/03 15:31:33;;;;;;;12.57;3.50;;;;;;;;;;6135624;28;20657;-70
2021/04/03 15:34:34;;;;;;;11.30;3.08;;;;;;;;;;6129931;28;20055;-70
2021/04/03 15:37:36;;;;;;;6.75;3.10;;;;;;;;;;6137929;28;20057;-70
2021/04/03 15:40:38;;;;;;;7.70;3.20;;;;;;;;;;6135922;28;20597;-70
2021/04/03 15:43:39;;;;;;;4.05;2.72;;;;;;;;;;6132766;28;20106;-72
2021/04/03 15:46:42;;;;;;;7.47;2.70;;;;;;;;;;6131580;28;20069;-72
2021/04/03 15:49:43;;;;;;;6.25;2.90;;;;;;;;;;6137288;28;20077;-70
2021/04/03 15:52:45;;;;;;;11.75;2.60;;;;;;;;;;6138619;28;20138;-71
2021/04/03 15:55:47;;;;;;;5.97;2.97;;;;;;;;;;6130867;28;20047;-71
2021/04/03 15:58:49;;;;;;;6.65;2.70;;;;;;;;;;6138313;28;20553;-70
2021/04/03 16:01:50;;;;;;;6.28;2.80;;;;;;;;;;6129435;28;20519;-70
2021/04/03 16:04:51;;;;;;;7.45;2.60;;;;;;;;;;6132536;28;20139;-70
2021/04/03 16:07:52;;;;;;;9.60;3.00;;;;;;;;;;6135481;28;20130;-70
2021/04/03 16:10:54;;;;;;;4.63;2.38;;;;;;;;;;6136615;28;20130;-71
2021/04/03 16:13:55;;;;;;;7.60;2.97;;;;;;;;;;6133228;28;20218;-68
2021/04/03 16:16:56;;;;;;;7.80;3.05;;;;;;;;;;6135131;28;20130;-70
2021/04/03 16:19:57;;;;;;;5.90;2.85;;;;;;;;;;6134899;28;20073;-68
2021/04/03 16:22:58;;;;;;;9.75;2.72;;;;;;;;;;6130657;28;20130;-68
2021/04/03 16:26:00;;;;;;;6.35;2.45;;;;;;;;;;6144141;28;20126;-69
2021/04/03 16:29:01;;;;;;;4.85;2.47;;;;;;;;;;6133175;28;20794;-70
2021/04/03 16:32:03;;;;;;;6.32;2.28;;;;;;;;;;6134499;28;20078;-69
2021/04/03 16:35:05;;;;;;;4.90;2.53;;;;;;;;;;6131770;28;20055;-69
2021/04/03 16:38:06;;;;;;;9.30;3.10;;;;;;;;;;6140689;28;20609;-68
2021/04/03 16:41:08;;;;;;;7.28;2.85;;;;;;;;;;6143824;28;20602;-69
2021/04/03 16:44:09;;;;;;;6.57;2.70;;;;;;;;;;6129706;28;20154;-69
2021/04/03 16:47:10;;;;;;;6.93;2.70;;;;;;;;;;6132095;28;20118;-69
2021/04/03 16:50:12;;;;;;;6.38;2.65;;;;;;;;;;6133371;28;20320;-69
2021/04/03 16:53:13;;;;;;;6.88;2.70;;;;;;;;;;6137071;28;20081;-71
2021/04/03 16:56:15;;;;;;;7.25;2.75;;;;;;;;;;6132999;28;20613;-70
2021/04/03 16:59:17;;;;;;;5.53;2.50;;;;;;;;;;6134521;28;20466;-71
2021/04/03 17:02:18;;;;;;;10.20;2.40;;;;;;;;;;6136474;28;20051;-70
2021/04/03 17:05:19;;;;;;;6.45;2.30;;;;;;;;;;6138654;28;20082;-71
2021/04/03 17:08:20;;;;;;;5.38;2.70;;;;;;;;;;6134379;28;20051;-70
2021/04/03 17:11:22;;;;;;;6.18;2.45;;;;;;;;;;6136369;28;20043;-70
2021/04/03 17:14:23;;;;;;;7.82;2.42;;;;;;;;;;6137342;28;20173;-71
2021/04/03 17:17:24;;;;;;;4.95;1.77;;;;;;;;;;6127169;28;20047;-73
2021/04/03 17:20:27;;;;;;;6.43;2.25;;;;;;;;;;6136205;28;20158;-71
2021/04/03 17:23:29;;;;;;;7.82;2.45;;;;;;;;;;6142759;28;20051;-69
2021/04/03 17:26:31;;;;;;;8.25;2.17;;;;;;;;;;6136354;28;20055;-69
2021/04/03 17:29:32;;;;;;;5.30;1.92;;;;;;;;;;6132295;28;20094;-71
2021/04/03 17:32:33;;;;;;;6.57;2.20;;;;;;;;;;6136509;28;20130;-70
2021/04/03 17:35:34;;;;;;;7.88;2.42;;;;;;;;;;6132228;28;20138;-70
2021/04/03 17:38:35;;;;;;;7.40;2.22;;;;;;;;;;6135038;28;20451;-69
2021/04/03 17:41:37;;;;;;;6.18;2.20;;;;;;;;;;6136066;28;20086;-69
2021/04/03 17:44:38;;;;;;;5.75;2.78;;;;;;;;;;6132724;28;21751;-69
2021/04/03 17:47:39;;;;;;;6.20;2.35;;;;;;;;;;6134314;28;20585;-70
2021/04/03 17:50:41;;;;;;;4.53;2.08;;;;;;;;;;6138499;28;20031;-68
2021/04/03 17:53:42;;;;;;;7.18;2.60;;;;;;;;;;6132920;28;20346;-69
2021/04/03 17:56:44;;;;;;;5.50;1.85;;;;;;;;;;6139424;28;20529;-70
2021/04/03 17:59:45;;;;;;;8.70;2.30;;;;;;;;;;6139059;28;20770;-68
2021/04/03 18:02:46;;;;;;;4.07;2.08;;;;;;;;;;6141463;28;20566;-69
2021/04/03 18:05:47;;;;;;;7.45;2.20;;;;;;;;;;6126070;28;20114;-70